Time;durP1;ratioP1;P1;durP2;ratioP2;P2;SDS_P1;SDS_P2;PMS_P1;PMS_P2;Temp;Humidity;BMP_temperature;BMP_pressure;BME280_temperature;BME280_humidity;BME280_pressure;Samples;Min_cycle;Max_cycle;Signal;HPM_P1;HPM_P2
2021/05/16 00:01:10;;;;;;;0.20;0.20;;;12.10;21.20;;;;;;5087319;28;20418;-83
2021/05/16 00:03:37;;;;;;;0.10;0.10;;;12.20;41.30;;;;;;5075031;28;20025;-83
2021/05/16 00:06:03;;;;;;;;;;;12.20;49.30;;;;;;5068842;28;20029;-83
2021/05/16 00:08:29;;;;;;;0.00;0.00;;;12.20;52.60;;;;;;5075204;28;19994;-83
2021/05/16 00:10:56;;;;;;;0.20;0.20;;;12.20;41.10;;;;;;5090110;28;20559;-83
2021/05/16 00:13:22;;;;;;;0.30;0.30;;;12.20;41.40;;;;;;5089797;28;20298;-83
2021/05/16 00:15:48;;;;;;;0.10;0.10;;;12.20;32.70;;;;;;5090082;28;20025;-83
2021/05/16 00:18:14;;;;;;;0.10;0.10;;;12.20;27.40;;;;;;5089899;28;20506;-83
2021/05/16 00:20:40;;;;;;;0.20;0.20;;;12.20;20.50;;;;;;5089861;28;20032;-83
2021/05/16 00:23:07;;;;;;;0.00;0.00;;;12.20;15.10;;;;;;5088394;28;20052;-83
2021/05/16 00:25:34;;;;;;;0.10;0.10;;;12.20;11.80;;;;;;5072467;28;20078;-83
2021/05/16 00:28:00;;;;;;;0.10;0.10;;;12.20;3.10;;;;;;5069439;28;20025;-83
2021/05/16 00:30:27;;;;;;;0.10;0.10;;;12.20;1.00;;;;;;5069791;28;20025;-83
2021/05/16 00:32:54;;;;;;;;;;;12.30;1.00;;;;;;5069911;28;20032;-83
2021/05/16 00:35:22;;;;;;;0.10;0.10;;;12.20;1.00;;;;;;5069473;28;19915;-83
2021/05/16 00:37:49;;;;;;;0.35;0.35;;;12.20;1.00;;;;;;5068132;28;20060;-83
2021/05/16 00:40:15;;;;;;;0.05;0.05;;;12.20;1.00;;;;;;5069426;28;20028;-83
2021/05/16 00:42:41;;;;;;;0.85;0.43;;;12.20;1.00;;;;;;5069907;28;20032;-83
2021/05/16 00:45:12;;;;;;;0.33;0.33;;;12.20;1.00;;;;;;5069430;28;20109;-83
2021/05/16 00:47:39;;;;;;;0.10;0.10;;;12.20;1.00;;;;;;5069583;28;20259;-83
2021/05/16 00:50:09;;;;;;;0.20;0.20;;;12.20;1.00;;;;;;5069427;28;20058;-84
2021/05/16 00:52:38;;;;;;;0.10;0.10;;;12.20;1.00;;;;;;5068044;28;20028;-83
2021/05/16 00:55:07;;;;;;;0.10;0.10;;;12.20;1.00;;;;;;5069717;28;20111;-84
2021/05/16 00:57:32;;;;;;;0.75;0.38;;;12.20;1.00;;;;;;5069329;28;20428;-84
2021/05/16 00:59:58;;;;;;;0.00;0.00;;;12.10;1.00;;;;;;5068777;28;20056;-84
2021/05/16 01:02:24;;;;;;;0.10;0.10;;;12.10;1.00;;;;;;5068938;28;20024;-84
2021/05/16 01:04:51;;;;;;;2.33;0.52;;;12.20;1.00;;;;;;5069399;28;20077;-85
2021/05/16 01:07:17;;;;;;;0.10;0.10;;;12.10;1.00;;;;;;5068953;28;20029;-84
2021/05/16 01:09:43;;;;;;;0.00;0.00;;;12.10;1.00;;;;;;5069027;28;20787;-84
2021/05/16 01:12:11;;;;;;;0.10;0.10;;;12.10;1.00;;;;;;5069191;28;20041;-84
2021/05/16 01:14:43;;;;;;;0.10;0.10;;;12.10;99.90;;;;;;5068360;28;20320;-84
2021/05/16 01:17:10;;;;;;;0.15;0.10;;;12.10;1.00;;;;;;5069288;28;20613;-84
2021/05/16 01:19:36;;;;;;;0.10;0.10;;;12.10;99.90;;;;;;5068689;28;20056;-83
2021/05/16 01:22:04;;;;;;;0.10;0.10;;;12.10;1.00;;;;;;5069068;28;20111;-82
2021/05/16 01:24:29;;;;;;;0.10;0.10;;;12.10;1.00;;;;;;5068646;28;20024;-82
2021/05/16 01:26:57;;;;;;;0.13;0.13;;;12.10;1.00;;;;;;5069146;28;20504;-83
2021/05/16 01:29:24;;;;;;;0.10;0.10;;;12.10;1.00;;;;;;5068855;28;20025;-83
2021/05/16 01:31:50;;;;;;;1.00;0.30;;;12.10;1.00;;;;;;5069089;28;20066;-83
2021/05/16 01:34:16;;;;;;;0.10;0.10;;;12.00;1.00;;;;;;5069018;28;20089;-83
2021/05/16 01:36:42;;;;;;;0.10;0.10;;;12.00;1.00;;;;;;5069209;28;20125;-82
2021/05/16 01:39:12;;;;;;;0.10;0.10;;;12.10;1.00;;;;;;5069006;28;20781;-82
2021/05/16 01:41:39;;;;;;;0.10;0.10;;;12.10;99.90;;;;;;5068774;28;20866;-82
2021/05/16 01:44:07;;;;;;;0.10;0.10;;;12.10;99.90;;;;;;5068565;28;20032;-82
2021/05/16 01:46:33;;;;;;;0.75;0.57;;;12.10;99.90;;;;;;5068828;28;20689;-82
2021/05/16 01:48:59;;;;;;;0.10;0.10;;;12.10;99.90;;;;;;5068772;28;20028;-82
2021/05/16 01:51:25;;;;;;;0.10;0.10;;;12.10;99.90;;;;;;5068493;28;20034;-82
2021/05/16 01:53:51;;;;;;;0.10;0.10;;;12.10;99.90;;;;;;5068956;28;20531;-82
2021/05/16 01:56:35;;;;;;;0.10;0.10;;;12.00;99.90;;;;;;5068957;28;20174;-82
2021/05/16 01:59:03;;;;;;;0.10;0.10;;;12.00;99.90;;;;;;5067566;28;20032;-82
2021/05/16 02:01:29;;;;;;;0.10;0.10;;;11.90;99.90;;;;;;5067360;28;20059;-83
2021/05/16 02:03:56;;;;;;;0.10;0.10;;;11.90;99.90;;;;;;5068819;28;20036;-83
2021/05/16 02:06:22;;;;;;;0.10;0.10;;;12.00;99.90;;;;;;5068891;28;20029;-82
2021/05/16 02:08:48;;;;;;;0.00;0.00;;;12.00;99.90;;;;;;5068609;28;20021;-82
2021/05/16 02:11:14;;;;;;;0.10;0.10;;;12.00;99.90;;;;;;5068777;28;20040;-83
2021/05/16 02:13:41;;;;;;;0.05;0.05;;;12.00;1.00;;;;;;5067445;28;20053;-82
2021/05/16 02:16:10;;;;;;;0.10;0.10;;;11.90;1.00;;;;;;5062737;28;20389;-82
2021/05/16 02:18:36;;;;;;;0.10;0.10;;;11.90;1.00;;;;;;5068129;28;20042;-83
2021/05/16 02:21:03;;;;;;;0.10;0.10;;;11.90;1.00;;;;;;5068266;28;20036;-83
2021/05/16 02:23:29;;;;;;;;;;;12.00;1.00;;;;;;5068613;28;20036;-83
2021/05/16 02:25:54;;;;;;;0.10;0.10;;;12.00;1.00;;;;;;5066997;28;19908;-83
2021/05/16 02:28:21;;;;;;;1.02;0.60;;;12.10;1.00;;;;;;5070474;28;20332;-83
2021/05/16 02:30:48;;;;;;;0.20;0.20;;;12.10;1.00;;;;;;5071424;28;20028;-83
2021/05/16 02:33:13;;;;;;;;;;;12.00;1.00;;;;;;5072150;28;20060;-83
2021/05/16 02:35:40;;;;;;;0.10;0.10;;;12.00;1.00;;;;;;5071418;28;19951;-83
2021/05/16 02:38:06;;;;;;;0.10;0.10;;;12.00;1.00;;;;;;5071860;28;20035;-82
2021/05/16 02:40:33;;;;;;;0.10;0.10;;;11.90;1.00;;;;;;5091750;28;20196;-82
2021/05/16 02:42:59;;;;;;;0.10;0.10;;;11.90;1.00;;;;;;5091406;28;20117;-82
2021/05/16 02:45:25;;;;;;;0.10;0.10;;;12.00;1.00;;;;;;5092143;28;20024;-83
2021/05/16 02:47:51;;;;;;;0.17;0.17;;;12.00;1.00;;;;;;5091953;28;20767;-83
2021/05/16 02:50:17;;;;;;;0.10;0.10;;;12.00;1.00;;;;;;5090467;28;20035;-83
2021/05/16 02:52:43;;;;;;;0.10;0.10;;;11.90;1.00;;;;;;5091911;28;20028;-82
2021/05/16 02:55:10;;;;;;;0.10;0.10;;;12.00;1.00;;;;;;5091684;28;20526;-82
2021/05/16 02:57:36;;;;;;;0.00;0.00;;;12.00;1.00;;;;;;5090083;28;20114;-82
2021/05/16 03:00:05;;;;;;;0.10;0.10;;;12.00;1.00;;;;;;5091062;28;20062;-83
2021/05/16 03:02:30;;;;;;;0.08;0.08;;;12.10;1.00;;;;;;5091554;28;20020;-83
2021/05/16 03:04:57;;;;;;;0.03;0.03;;;12.10;99.90;;;;;;5091319;28;20022;-83
2021/05/16 03:07:22;;;;;;;0.10;0.10;;;12.10;99.90;;;;;;5091757;28;20024;-83
2021/05/16 03:09:48;;;;;;;0.25;0.25;;;12.10;99.90;;;;;;5091249;28;20270;-83
2021/05/16 03:12:14;;;;;;;0.23;0.23;;;12.10;99.90;;;;;;5073570;28;20337;-82
2021/05/16 03:14:40;;;;;;;0.10;0.10;;;12.00;99.90;;;;;;5071232;28;20048;-83
2021/05/16 03:17:06;;;;;;;0.10;0.10;;;12.00;99.90;;;;;;5069444;28;20804;-82
2021/05/16 03:19:32;;;;;;;0.10;0.10;;;12.00;99.90;;;;;;5071295;28;20059;-82
2021/05/16 03:22:01;;;;;;;0.10;0.10;;;12.10;99.90;;;;;;5071002;28;20122;-82
2021/05/16 03:24:27;;;;;;;0.10;0.10;;;12.00;99.90;;;;;;5070830;28;20028;-83
2021/05/16 03:26:53;;;;;;;0.00;0.00;;;12.00;99.90;;;;;;5071243;28;20024;-82
2021/05/16 03:29:19;;;;;;;0.15;0.15;;;12.00;99.90;;;;;;5081215;28;20036;-83
2021/05/16 03:31:45;;;;;;;0.00;0.00;;;12.10;99.90;;;;;;5091422;28;20546;-83
2021/05/16 03:34:10;;;;;;;0.00;0.00;;;12.10;99.90;;;;;;5091192;28;20024;-83
2021/05/16 03:36:36;;;;;;;0.10;0.10;;;12.00;99.90;;;;;;5091200;28;20233;-83
2021/05/16 03:39:04;;;;;;;0.10;0.10;;;12.00;99.90;;;;;;5090526;28;20084;-83
2021/05/16 03:41:30;;;;;;;0.10;0.10;;;12.10;99.90;;;;;;5090896;28;20035;-82
2021/05/16 03:43:55;;;;;;;0.10;0.10;;;12.00;99.90;;;;;;5091034;28;20024;-83
2021/05/16 03:46:21;;;;;;;0.10;0.10;;;12.00;99.90;;;;;;5090839;28;20032;-82
2021/05/16 03:48:47;;;;;;;0.27;0.27;;;12.10;99.90;;;;;;5091068;28;20036;-82
2021/05/16 03:51:13;;;;;;;0.10;0.10;;;12.10;99.90;;;;;;5090657;28;20031;-82
2021/05/16 03:53:39;;;;;;;0.10;0.10;;;12.10;99.90;;;;;;5090779;28;20028;-83
2021/05/16 03:56:06;;;;;;;0.10;0.10;;;12.10;99.90;;;;;;5090970;28;20502;-81
2021/05/16 03:58:32;;;;;;;0.10;0.10;;;12.10;99.90;;;;;;5088534;28;20036;-82
2021/05/16 04:00:58;;;;;;;0.10;0.10;;;12.10;99.90;;;;;;5069111;28;20107;-82
2021/05/16 04:03:24;;;;;;;0.10;0.10;;;12.10;99.90;;;;;;5068649;28;20052;-81
2021/05/16 04:05:50;;;;;;;0.00;0.00;;;12.20;99.90;;;;;;5069241;28;20075;-82
2021/05/16 04:08:15;;;;;;;0.10;0.10;;;12.10;99.90;;;;;;5070199;28;20051;-82
2021/05/16 04:10:41;;;;;;;0.10;0.10;;;12.20;99.90;;;;;;5068793;28;20388;-82
2021/05/16 04:13:07;;;;;;;0.05;0.05;;;12.20;99.90;;;;;;5070032;28;20553;-82
2021/05/16 04:15:33;;;;;;;0.10;0.10;;;12.20;99.90;;;;;;5069895;28;20025;-82
2021/05/16 04:17:58;;;;;;;0.10;0.10;;;12.20;99.90;;;;;;5070136;28;20063;-81
2021/05/16 04:20:24;;;;;;;0.10;0.10;;;12.20;99.90;;;;;;5069823;28;20032;-82
2021/05/16 04:22:50;;;;;;;0.10;0.10;;;12.20;99.90;;;;;;5069544;28;20052;-82
2021/05/16 04:25:16;;;;;;;0.10;0.10;;;12.20;99.90;;;;;;5069955;28;20066;-82
2021/05/16 04:27:42;;;;;;;0.10;0.10;;;12.10;99.90;;;;;;5069601;28;20107;-82
2021/05/16 04:30:08;;;;;;;0.10;0.10;;;12.10;99.90;;;;;;5069399;28;20037;-81
2021/05/16 04:32:34;;;;;;;0.10;0.10;;;12.10;99.90;;;;;;5069605;28;20027;-81
2021/05/16 04:35:00;;;;;;;0.03;0.03;;;12.10;99.90;;;;;;5069894;28;20115;-82
2021/05/16 04:37:26;;;;;;;0.00;0.00;;;12.10;99.90;;;;;;5068147;28;20752;-83
2021/05/16 04:39:52;;;;;;;0.10;0.10;;;12.20;99.90;;;;;;5069822;28;20037;-83
2021/05/16 04:42:18;;;;;;;0.00;0.00;;;12.20;99.90;;;;;;5069447;28;20467;-83
2021/05/16 04:44:43;;;;;;;0.10;0.10;;;12.20;99.90;;;;;;5069414;28;20033;-83
2021/05/16 04:47:09;;;;;;;0.10;0.10;;;12.20;99.90;;;;;;5069412;28;20081;-83
2021/05/16 04:49:35;;;;;;;0.00;0.00;;;12.20;99.90;;;;;;5068932;28;20027;-83
2021/05/16 04:52:01;;;;;;;0.10;0.10;;;12.20;99.90;;;;;;5069240;28;20070;-83
2021/05/16 04:54:27;;;;;;;0.00;0.00;;;12.20;99.90;;;;;;5069993;28;20033;-83
2021/05/16 04:56:53;;;;;;;0.10;0.10;;;12.20;99.90;;;;;;5069590;28;20025;-83
2021/05/16 04:59:18;;;;;;;0.10;0.10;;;12.20;99.90;;;;;;5069713;28;20085;-83
2021/05/16 05:01:44;;;;;;;0.10;0.10;;;12.30;99.90;;;;;;5069373;28;20404;-83
2021/05/16 05:04:10;;;;;;;0.10;0.10;;;12.30;99.90;;;;;;5069760;28;20799;-83
2021/05/16 05:06:36;;;;;;;0.00;0.00;;;12.20;99.90;;;;;;5069311;28;20032;-83
2021/05/16 05:09:07;;;;;;;0.10;0.10;;;12.30;99.90;;;;;;5069533;28;20017;-83
2021/05/16 05:11:34;;;;;;;0.00;0.00;;;12.30;99.90;;;;;;5068113;28;20024;-83
2021/05/16 05:14:00;;;;;;;0.80;0.80;;;12.30;99.90;;;;;;5069254;28;20048;-82
2021/05/16 05:16:26;;;;;;;0.00;0.00;;;12.30;99.90;;;;;;5069773;28;20043;-83
2021/05/16 05:18:52;;;;;;;0.00;0.00;;;12.40;99.90;;;;;;5069204;28;20174;-83
2021/05/16 05:21:18;;;;;;;0.00;0.00;;;12.40;99.90;;;;;;5069500;28;20034;-82
2021/05/16 05:23:43;;;;;;;0.10;0.10;;;12.40;99.90;;;;;;5069159;28;20427;-82
2021/05/16 05:26:09;;;;;;;0.10;0.10;;;12.40;99.90;;;;;;5068050;28;20119;-82
2021/05/16 05:28:35;;;;;;;0.13;0.13;;;12.50;99.90;;;;;;5069478;28;20033;-82
2021/05/16 05:31:01;;;;;;;0.10;0.10;;;12.50;99.90;;;;;;5068951;28;20465;-82
2021/05/16 05:33:27;;;;;;;0.08;0.08;;;12.50;99.90;;;;;;5069610;28;20032;-82
2021/05/16 05:35:53;;;;;;;0.00;0.00;;;12.50;99.90;;;;;;5069206;28;20442;-82
2021/05/16 05:38:20;;;;;;;0.10;0.10;;;12.50;99.90;;;;;;5069542;28;20025;-82
2021/05/16 05:40:46;;;;;;;0.10;0.10;;;12.50;99.90;;;;;;5067764;28;20044;-81
2021/05/16 05:43:12;;;;;;;0.00;0.00;;;12.50;99.90;;;;;;5069016;28;20035;-81
2021/05/16 05:45:38;;;;;;;0.10;0.10;;;12.60;99.90;;;;;;5078068;28;20029;-82
2021/05/16 05:48:06;;;;;;;0.10;0.10;;;12.50;99.90;;;;;;5088884;28;20028;-81
2021/05/16 05:50:32;;;;;;;0.00;0.00;;;12.60;99.90;;;;;;5071537;28;20516;-82
2021/05/16 05:53:02;;;;;;;0.00;0.00;;;12.70;99.90;;;;;;5069016;28;20054;-82
2021/05/16 05:55:31;;;;;;;0.00;0.00;;;12.70;99.90;;;;;;5069027;28;20427;-82
2021/05/16 05:57:58;;;;;;;0.10;0.10;;;12.70;99.90;;;;;;5068879;28;20193;-83
2021/05/16 06:00:24;;;;;;;0.10;0.10;;;12.80;99.90;;;;;;5068806;28;20074;-83
2021/05/16 06:02:51;;;;;;;0.00;0.00;;;12.80;99.90;;;;;;5073710;28;20056;-83
2021/05/16 06:05:18;;;;;;;0.10;0.10;;;12.90;99.90;;;;;;5083442;28;20032;-83
2021/05/16 06:07:44;;;;;;;;;;;12.90;99.90;;;;;;5093755;28;20016;-82
2021/05/16 06:10:10;;;;;;;0.00;0.00;;;12.80;99.90;;;;;;5091265;28;19927;-83
2021/05/16 06:12:36;;;;;;;0.00;0.00;;;12.80;99.90;;;;;;5079996;28;20040;-83
2021/05/16 06:15:03;;;;;;;0.00;0.00;;;12.80;99.90;;;;;;5090186;28;20052;-83
2021/05/16 06:17:29;;;;;;;;;;;12.90;99.90;;;;;;5080214;28;20123;-82
2021/05/16 06:19:57;;;;;;;0.00;0.00;;;13.00;99.90;;;;;;5074172;28;19946;-82
2021/05/16 06:22:24;;;;;;;0.00;0.00;;;13.00;99.90;;;;;;5061659;28;20451;-82
2021/05/16 06:24:50;;;;;;;0.03;0.03;;;13.00;99.90;;;;;;5079628;28;20020;-83
2021/05/16 06:27:17;;;;;;;0.00;0.00;;;13.10;99.90;;;;;;5084869;28;20032;-83
2021/05/16 06:29:45;;;;;;;0.10;0.10;;;13.10;99.90;;;;;;5083955;28;20028;-84
2021/05/16 06:32:13;;;;;;;0.00;0.00;;;13.20;99.90;;;;;;5082263;28;20059;-83
2021/05/16 06:34:40;;;;;;;0.10;0.10;;;13.20;11.00;;;;;;5077331;28;20032;-83
2021/05/16 06:37:06;;;;;;;;;;;13.20;99.90;;;;;;5080271;28;20036;-83
2021/05/16 06:39:33;;;;;;;0.15;0.15;;;13.10;99.90;;;;;;5063308;28;19908;-83
2021/05/16 06:42:01;;;;;;;0.50;0.50;;;13.20;99.90;;;;;;5065597;28;20162;-82
2021/05/16 06:44:28;;;;;;;0.30;0.30;;;13.40;99.90;;;;;;5078424;28;20028;-83
2021/05/16 06:46:55;;;;;;;0.32;0.32;;;13.60;99.90;;;;;;5070062;28;20921;-82
2021/05/16 06:49:21;;;;;;;;;;;13.70;99.90;;;;;;5074936;28;20032;-82
2021/05/16 06:51:48;;;;;;;0.10;0.10;;;13.70;99.90;;;;;;5074766;28;19916;-83
2021/05/16 06:54:14;;;;;;;0.60;0.60;;;13.70;99.90;;;;;;5075289;28;20403;-83
2021/05/16 06:56:40;;;;;;;0.28;0.28;;;13.70;99.90;;;;;;5080438;28;20577;-83
2021/05/16 06:59:07;;;;;;;0.35;0.35;;;13.70;99.90;;;;;;5069867;28;20031;-83
2021/05/16 07:01:32;;;;;;;0.13;0.13;;;13.70;99.90;;;;;;5075973;28;20029;-83
2021/05/16 07:03:58;;;;;;;0.53;0.53;;;13.70;99.90;;;;;;5072547;28;20031;-84
2021/05/16 07:06:27;;;;;;;1.70;1.60;;;13.90;99.90;;;;;;5075567;28;20111;-85
2021/05/16 07:08:53;;;;;;;2.00;1.90;;;13.80;99.90;;;;;;5061988;28;20090;-84
2021/05/16 07:11:19;;;;;;;3.60;2.33;;;13.90;99.90;;;;;;5080661;28;20457;-84
2021/05/16 07:13:45;;;;;;;3.30;2.07;;;13.90;99.90;;;;;;5089399;28;20071;-84
2021/05/16 07:16:12;;;;;;;1.05;1.05;;;13.90;99.90;;;;;;5080488;28;20143;-85
2021/05/16 07:18:38;;;;;;;1.55;1.45;;;13.90;99.90;;;;;;5070909;28;20120;-84
2021/05/16 07:21:04;;;;;;;4.90;2.70;;;13.90;99.90;;;;;;5071811;28;20024;-84
2021/05/16 07:23:29;;;;;;;13.47;1.50;;;13.90;99.90;;;;;;5089459;28;20526;-85
2021/05/16 07:25:57;;;;;;;0.43;0.43;;;13.90;99.90;;;;;;5073714;28;20049;-84
2021/05/16 07:28:23;;;;;;;0.10;0.10;;;14.00;99.90;;;;;;5092118;28;20024;-84
2021/05/16 07:30:49;;;;;;;0.20;0.20;;;14.00;99.90;;;;;;5092501;28;20024;-83
2021/05/16 07:33:15;;;;;;;0.43;0.43;;;14.20;99.90;;;;;;5078893;28;20116;-84
2021/05/16 07:35:42;;;;;;;0.10;0.10;;;14.20;99.90;;;;;;5063465;28;20029;-84
2021/05/16 07:38:08;;;;;;;;;;;14.20;99.90;;;;;;5066967;28;20021;-84
2021/05/16 07:40:36;;;;;;;0.10;0.10;;;14.20;99.90;;;;;;5060774;28;19980;-83
2021/05/16 07:43:04;;;;;;;0.15;0.15;;;14.10;99.90;;;;;;5057590;28;20032;-84
2021/05/16 07:45:31;;;;;;;0.40;0.40;;;14.00;99.90;;;;;;5062541;28;20017;-83
2021/05/16 07:47:58;;;;;;;0.10;0.10;;;14.10;99.90;;;;;;5062535;28;20177;-84
2021/05/16 07:50:24;;;;;;;0.40;0.40;;;13.90;99.90;;;;;;5056209;28;20413;-84
2021/05/16 07:52:49;;;;;;;0.20;0.20;;;13.90;99.90;;;;;;5066394;28;20032;-83
2021/05/16 07:55:16;;;;;;;0.10;0.10;;;14.00;99.90;;;;;;5058556;28;20029;-83
2021/05/16 07:57:44;;;;;;;0.10;0.10;;;13.90;99.90;;;;;;5064089;28;20813;-84
2021/05/16 08:00:12;;;;;;;0.30;0.30;;;13.90;99.90;;;;;;5058161;28;20045;-84
2021/05/16 08:02:40;;;;;;;0.10;0.10;;;13.80;99.90;;;;;;5058578;28;20532;-84
2021/05/16 08:05:13;;;;;;;0.10;0.10;;;13.70;99.90;;;;;;5059530;28;20388;-85
2021/05/16 08:07:42;;;;;;;1.25;0.85;;;13.70;1.00;;;;;;5055872;28;20033;-84
2021/05/16 08:10:10;;;;;;;0.10;0.10;;;13.60;1.00;;;;;;5058720;28;20059;-84
2021/05/16 08:12:36;;;;;;;0.10;0.10;;;13.80;99.90;;;;;;5073023;28;20107;-84
2021/05/16 08:15:04;;;;;;;0.88;0.88;;;13.80;99.90;;;;;;5074436;28;20510;-84
2021/05/16 08:17:30;;;;;;;0.10;0.10;;;13.80;99.90;;;;;;5062350;28;20053;-84
2021/05/16 08:19:56;;;;;;;0.10;0.10;;;13.80;99.90;;;;;;5057969;28;20094;-84
2021/05/16 08:22:22;;;;;;;0.17;0.17;;;13.90;51.20;;;;;;5056055;28;20059;-84
2021/05/16 08:24:48;;;;;;;0.10;0.10;;;14.00;1.00;;;;;;5059491;28;20059;-84
2021/05/16 08:27:14;;;;;;;0.00;0.00;;;13.90;99.90;;;;;;5057597;28;20028;-84
2021/05/16 08:29:40;;;;;;;0.20;0.20;;;13.90;99.90;;;;;;5062520;28;20024;-83
2021/05/16 08:32:07;;;;;;;0.13;0.13;;;13.90;21.80;;;;;;5057737;28;20021;-84
2021/05/16 08:34:34;;;;;;;4.28;2.40;;;14.00;1.00;;;;;;5061179;28;20033;-84
2021/05/16 08:37:00;;;;;;;0.15;0.15;;;14.10;99.90;;;;;;5067357;28;20062;-84
2021/05/16 08:39:26;;;;;;;0.22;0.20;;;14.50;99.90;;;;;;5060764;28;20041;-83
2021/05/16 08:41:52;;;;;;;0.10;0.10;;;14.30;1.00;;;;;;5062583;28;20039;-83
2021/05/16 08:44:20;;;;;;;0.30;0.30;;;14.10;1.00;;;;;;5066298;28;20029;-84
2021/05/16 08:46:46;;;;;;;0.65;0.65;;;14.10;1.00;;;;;;5067033;28;20050;-85
2021/05/16 08:49:12;;;;;;;0.52;0.52;;;14.50;1.00;;;;;;5066842;28;20032;-84
2021/05/16 08:51:39;;;;;;;0.47;0.47;;;14.50;99.90;;;;;;5060449;28;20025;-83
2021/05/16 08:54:06;;;;;;;0.22;0.22;;;14.50;99.90;;;;;;5056934;28;20041;-84
2021/05/16 08:56:32;;;;;;;0.32;0.20;;;14.60;99.90;;;;;;5066677;28;20035;-85
2021/05/16 08:58:58;;;;;;;0.93;0.93;;;14.70;99.90;;;;;;5060862;28;20107;-85
2021/05/16 09:01:33;;;;;;;0.63;0.63;;;14.60;99.90;;;;;;5054988;28;20579;-85
2021/05/16 09:04:25;;;;;;;0.20;0.20;;;14.50;99.90;;;;;;5059578;28;20045;-85
2021/05/16 09:06:55;;;;;;;0.47;0.40;;;14.60;99.90;;;;;;5066861;28;20040;-84
2021/05/16 09:09:33;;;;;;;0.77;0.77;;;14.60;99.90;;;;;;5075454;28;20058;-85
2021/05/16 09:12:05;;;;;;;0.70;0.50;;;14.60;99.90;;;;;;5086535;28;20118;-85
2021/05/16 09:14:51;;;;;;;0.10;0.10;;;14.30;46.20;;;;;;5071133;28;20060;-83
2021/05/16 09:17:25;;;;;;;0.32;0.32;;;14.20;1.00;;;;;;5056153;28;20027;-82
2021/05/16 09:19:53;;;;;;;0.15;0.15;;;14.30;1.00;;;;;;5086384;28;20032;-83
2021/05/16 09:22:34;;;;;;;0.25;0.25;;;14.40;99.90;;;;;;5085578;28;20131;-83
2021/05/16 09:25:18;;;;;;;0.40;0.40;;;14.30;99.90;;;;;;5078798;28;20114;-84
2021/05/16 09:27:49;;;;;;;0.10;0.10;;;14.30;99.90;;;;;;5075444;28;20082;-84
2021/05/16 09:30:15;;;;;;;0.10;0.10;;;14.40;49.40;;;;;;5073203;28;20103;-84
2021/05/16 09:33:00;;;;;;;0.10;0.10;;;14.30;99.90;;;;;;5090125;28;20099;-85
2021/05/16 09:35:27;;;;;;;0.20;0.20;;;14.20;1.00;;;;;;5079368;28;20030;-85
2021/05/16 09:38:15;;;;;;;0.32;0.30;;;14.20;7.10;;;;;;5064413;28;20515;-85
2021/05/16 09:40:48;;;;;;;0.10;0.10;;;14.30;99.90;;;;;;5061045;28;20032;-84
2021/05/16 09:43:23;;;;;;;0.43;0.43;;;14.60;91.60;;;;;;5063460;28;20027;-84
2021/05/16 09:46:01;;;;;;;0.22;0.22;;;14.70;1.00;;;;;;5066588;28;20036;-84
2021/05/16 09:48:36;;;;;;;0.20;0.20;;;14.70;1.00;;;;;;5069490;28;20541;-85
2021/05/16 09:51:20;;;;;;;0.20;0.10;;;14.80;1.00;;;;;;5093104;28;20032;-84
2021/05/16 09:54:10;;;;;;;0.60;0.60;;;15.20;99.90;;;;;;5068804;28;20086;-84
2021/05/16 09:56:49;;;;;;;0.08;0.08;;;15.60;1.00;;;;;;5066678;28;20028;-84
2021/05/16 09:59:19;;;;;;;0.20;0.20;;;15.70;1.00;;;;;;5058909;28;20161;-85
2021/05/16 10:01:56;;;;;;;0.10;0.10;;;15.70;99.90;;;;;;5071075;28;20047;-83
2021/05/16 10:04:23;;;;;;;0.30;0.30;;;15.90;99.90;;;;;;5059465;28;20543;-83
2021/05/16 10:06:59;;;;;;;1.13;0.57;;;15.90;99.90;;;;;;5066349;28;20099;-83
2021/05/16 10:09:30;;;;;;;0.10;0.10;;;15.50;99.90;;;;;;5069340;28;20437;-84
2021/05/16 10:11:56;;;;;;;0.10;0.10;;;15.70;99.90;;;;;;5057740;28;20029;-83
2021/05/16 10:14:28;;;;;;;0.00;0.00;;;15.50;99.90;;;;;;5060651;28;20762;-84
2021/05/16 10:16:54;;;;;;;0.00;0.00;;;15.70;99.90;;;;;;5066827;28;20365;-85
2021/05/16 10:19:23;;;;;;;0.10;0.10;;;16.50;99.90;;;;;;5063270;28;20060;-83
2021/05/16 10:22:04;;;;;;;0.20;0.20;;;16.00;99.90;;;;;;5069745;28;20286;-83
2021/05/16 10:24:38;;;;;;;0.00;0.00;;;16.20;99.90;;;;;;5079979;28;20438;-83
2021/05/16 10:27:24;;;;;;;0.00;0.00;;;16.40;99.90;;;;;;5068081;28;20511;-83
2021/05/16 10:29:54;;;;;;;0.00;0.00;;;16.40;99.90;;;;;;5061496;28;20099;-85
2021/05/16 10:32:37;;;;;;;0.10;0.10;;;16.00;99.90;;;;;;5062761;28;20056;-84
2021/05/16 10:35:09;;;;;;;0.00;0.00;;;15.70;99.90;;;;;;5060037;28;20040;-85
2021/05/16 10:37:41;;;;;;;0.10;0.10;;;15.50;99.90;;;;;;5069837;28;20118;-85
2021/05/16 10:40:20;;;;;;;0.10;0.10;;;15.30;99.90;;;;;;5067990;28;20020;-84
2021/05/16 10:42:47;;;;;;;0.10;0.10;;;15.20;99.90;;;;;;5071067;28;20032;-85
2021/05/16 10:45:30;;;;;;;0.10;0.10;;;15.30;99.90;;;;;;5068572;28;20078;-84
2021/05/16 10:48:11;;;;;;;0.10;0.10;;;15.10;99.90;;;;;;5068147;28;20036;-84
2021/05/16 10:50:51;;;;;;;0.10;0.10;;;15.10;99.90;;;;;;5072059;28;20837;-85
2021/05/16 10:53:19;;;;;;;0.05;0.05;;;15.30;99.90;;;;;;5078471;28;20032;-85
2021/05/16 10:56:01;;;;;;;0.00;0.00;;;16.10;99.90;;;;;;5083878;28;20084;-83
2021/05/16 10:58:35;;;;;;;0.10;0.10;;;16.30;99.90;;;;;;5073007;28;20051;-84
2021/05/16 11:01:03;;;;;;;0.00;0.00;;;16.10;99.90;;;;;;5074077;28;20124;-84
2021/05/16 11:04:00;;;;;;;0.30;0.30;;;16.60;99.90;;;;;;5066275;28;20538;-84
2021/05/16 11:06:37;;;;;;;0.10;0.10;;;16.60;99.90;;;;;;5087309;28;20012;-85
2021/05/16 11:09:05;;;;;;;0.00;0.00;;;16.30;99.90;;;;;;5065597;28;20071;-86
2021/05/16 11:11:39;;;;;;;0.15;0.15;;;16.00;99.90;;;;;;5072217;28;20043;-85
2021/05/16 11:14:16;;;;;;;0.10;0.10;;;15.40;99.90;;;;;;5071504;28;20073;-86
2021/05/16 11:16:56;;;;;;;0.05;0.05;;;14.90;99.90;;;;;;5078493;28;20123;-86
2021/05/16 11:19:24;;;;;;;0.00;0.00;;;15.60;99.90;;;;;;5062942;28;20035;-85
2021/05/16 11:21:50;;;;;;;0.00;0.00;;;16.80;99.90;;;;;;5081291;28;20391;-86
2021/05/16 11:24:31;;;;;;;0.00;0.00;;;17.70;99.90;;;;;;5075719;28;20031;-84
2021/05/16 11:26:56;;;;;;;0.00;0.00;;;18.20;99.90;;;;;;5073969;28;20036;-85
2021/05/16 11:29:23;;;;;;;0.00;0.00;;;17.90;99.90;;;;;;5082274;28;20039;-85
2021/05/16 11:32:01;;;;;;;0.10;0.10;;;17.90;99.90;;;;;;5084721;28;20397;-85
2021/05/16 11:34:28;;;;;;;0.00;0.00;;;17.50;99.90;;;;;;5069470;28;20044;-86
2021/05/16 11:36:54;;;;;;;0.40;0.40;;;17.30;99.90;;;;;;5084662;28;20076;-85
2021/05/16 11:39:21;;;;;;;0.00;0.00;;;17.30;99.90;;;;;;5072456;28;20113;-85
2021/05/16 11:41:48;;;;;;;0.15;0.15;;;17.00;99.90;;;;;;5068287;28;20032;-85
2021/05/16 11:44:24;;;;;;;;;;;16.90;99.90;;;;;;5078568;28;20028;-86
2021/05/16 11:46:55;;;;;;;0.95;0.65;;;16.70;99.90;;;;;;5075299;28;19909;-86
2021/05/16 11:49:29;;;;;;;0.00;0.00;;;16.30;99.90;;;;;;5082692;28;20389;-85
2021/05/16 11:51:59;;;;;;;0.10;0.10;;;16.10;99.90;;;;;;5063774;28;20020;-84
2021/05/16 11:54:50;;;;;;;0.20;0.20;;;15.90;99.90;;;;;;5076399;28;20386;-84
2021/05/16 11:57:16;;;;;;;0.00;0.00;;;16.00;99.90;;;;;;5064170;28;20128;-84
2021/05/16 11:59:42;;;;;;;0.03;0.03;;;16.00;99.90;;;;;;5076558;28;20103;-84
2021/05/16 12:02:08;;;;;;;0.00;0.00;;;15.90;99.90;;;;;;5074208;28;20060;-87
2021/05/16 12:04:41;;;;;;;0.00;0.00;;;16.20;99.90;;;;;;5084312;28;20439;-86
2021/05/16 12:07:07;;;;;;;0.10;0.10;;;16.00;99.90;;;;;;5070464;28;20071;-85
2021/05/16 12:09:41;;;;;;;0.00;0.00;;;15.70;99.90;;;;;;5074562;28;20029;-87
2021/05/16 12:12:28;;;;;;;0.20;0.20;;;15.70;99.90;;;;;;5081708;28;20031;-87
2021/05/16 12:14:57;;;;;;;0.00;0.00;;;15.30;99.90;;;;;;5078439;28;20517;-86
2021/05/16 12:17:33;;;;;;;0.10;0.10;;;15.10;99.90;;;;;;5076070;28;20031;-86
2021/05/16 12:19:59;;;;;;;0.17;0.17;;;15.30;99.90;;;;;;5069935;28;20028;-86
2021/05/16 12:22:34;;;;;;;0.30;0.15;;;15.60;99.90;;;;;;5069067;28;20031;-85
2021/05/16 12:25:00;;;;;;;0.00;0.00;;;15.90;99.90;;;;;;5070209;28;20032;-86
2021/05/16 12:27:27;;;;;;;0.10;0.10;;;16.00;99.90;;;;;;5071111;28;20024;-86
2021/05/16 12:29:54;;;;;;;0.10;0.10;;;16.20;99.90;;;;;;5070165;28;20012;-86
2021/05/16 12:32:22;;;;;;;0.30;0.10;;;16.40;99.90;;;;;;5069333;28;20032;-86
2021/05/16 12:34:49;;;;;;;0.10;0.10;;;16.30;99.90;;;;;;5069691;28;20032;-86
2021/05/16 12:37:21;;;;;;;0.00;0.00;;;15.90;99.90;;;;;;5085322;28;20028;-86
2021/05/16 12:39:49;;;;;;;0.03;0.03;;;15.60;1.00;;;;;;5074977;28;20028;-85
2021/05/16 12:42:24;;;;;;;0.00;0.00;;;15.40;99.90;;;;;;5088528;28;20036;-86
2021/05/16 12:44:55;;;;;;;0.10;0.10;;;15.70;99.90;;;;;;5087766;28;20055;-86
2021/05/16 12:47:26;;;;;;;0.00;0.00;;;15.80;99.90;;;;;;5057277;28;20036;-88
2021/05/16 12:50:05;;;;;;;0.00;0.00;;;15.60;99.90;;;;;;5076176;28;20604;-89
2021/05/16 12:52:31;;;;;;;0.80;0.63;;;15.50;99.90;;;;;;5081856;28;20048;-88
2021/05/16 12:54:56;;;;;;;0.10;0.10;;;15.40;99.90;;;;;;5071836;28;20031;-87
2021/05/16 12:57:32;;;;;;;0.00;0.00;;;15.50;99.90;;;;;;5080034;28;20119;-87